Time;durP1;ratioP1;P1;durP2;ratioP2;P2;SDS_P1;SDS_P2;PMS_P1;PMS_P2;Temp;Humidity;BMP_temperature;BMP_pressure;BME280_temperature;BME280_humidity;BME280_pressure;Samples;Min_cycle;Max_cycle;Signal;HPM_P1;HPM_P2
2022/11/02 00:00:30;;;;;;;13.73;2.03;;;;;;;13.62;100.00;100121.22;4934205;29;20024;-94
2022/11/02 00:02:56;;;;;;;9.38;1.20;;;;;;;13.42;100.00;100117.63;4933384;29;20031;-94
2022/11/02 00:05:24;;;;;;;9.73;1.58;;;;;;;13.77;100.00;100119.09;4933699;29;20035;-94
2022/11/02 00:07:51;;;;;;;12.93;2.15;;;;;;;13.67;100.00;100135.69;4934234;29;20031;-93
2022/11/02 00:10:17;;;;;;;9.45;1.27;;;;;;;14.21;100.00;100160.09;4934078;29;20478;-93
2022/11/02 00:12:44;;;;;;;22.65;2.05;;;;;;;14.14;100.00;100185.38;4933792;29;20501;-93
2022/11/02 00:15:10;;;;;;;17.83;1.98;;;;;;;14.27;100.00;100185.13;4934225;29;20149;-94
2022/11/02 00:17:37;;;;;;;17.92;1.70;;;;;;;13.26;100.00;100183.97;4934098;29;20390;-93
2022/11/02 00:20:05;;;;;;;12.38;1.45;;;;;;;13.43;100.00;100179.97;4934688;29;20591;-93
2022/11/02 00:22:32;;;;;;;15.23;1.45;;;;;;;13.26;100.00;100168.97;4935028;29;20044;-93
2022/11/02 00:24:59;;;;;;;12.50;1.63;;;;;;;13.25;100.00;100177.00;4933830;29;20020;-93
2022/11/02 00:27:25;;;;;;;14.77;1.80;;;;;;;13.44;100.00;100182.47;4933816;29;20049;-94
2022/11/02 00:29:50;;;;;;;9.35;1.52;;;;;;;13.63;100.00;100180.94;4933368;29;20040;-92
2022/11/02 00:32:16;;;;;;;12.20;2.13;;;;;;;13.18;100.00;100196.97;4933782;29;20118;-93
2022/11/02 00:34:41;;;;;;;13.55;1.65;;;;;;;13.53;100.00;100190.59;4933927;29;20123;-93
2022/11/02 00:37:07;;;;;;;15.60;1.38;;;;;;;13.53;100.00;100201.16;4933782;29;20063;-94
2022/11/02 00:39:32;;;;;;;13.30;1.42;;;;;;;13.60;100.00;100197.84;4933854;29;20023;-93
2022/11/02 00:41:58;;;;;;;11.05;1.60;;;;;;;13.52;100.00;100199.47;4933747;29;20063;-94
2022/11/02 00:44:23;;;;;;;18.67;1.90;;;;;;;13.42;100.00;100202.84;4932905;29;20035;-92
2022/11/02 00:46:49;;;;;;;12.38;1.58;;;;;;;13.77;100.00;100204.34;4933813;29;20031;-93
2022/11/02 00:49:14;;;;;;;11.65;1.58;;;;;;;13.59;100.00;100216.47;4936751;29;20505;-93
2022/11/02 00:51:42;;;;;;;9.18;1.00;;;;;;;13.43;100.00;100217.72;4937232;29;20027;-93
2022/11/02 00:54:07;;;;;;;9.93;1.30;;;;;;;13.40;100.00;100220.63;4937004;29;20027;-93
2022/11/02 00:56:33;;;;;;;14.63;1.80;;;;;;;13.39;100.00;100221.59;4937131;29;20035;-93
2022/11/02 00:58:58;;;;;;;9.73;1.25;;;;;;;13.44;100.00;100231.75;4936163;29;20697;-93
2022/11/02 01:01:24;;;;;;;19.77;2.55;;;;;;;13.34;100.00;100236.94;4936964;29;20024;-93
2022/11/02 01:03:49;;;;;;;10.73;1.45;;;;;;;13.16;100.00;100241.91;4937157;29;20032;-93
2022/11/02 01:06:15;;;;;;;10.95;2.63;;;;;;;13.29;100.00;100249.66;4937231;29;20588;-94
2022/11/02 01:08:41;;;;;;;16.17;1.90;;;;;;;13.33;100.00;100237.94;4937237;29;20120;-93
2022/11/02 01:11:21;;;;;;;15.07;1.73;;;;;;;13.27;100.00;100238.41;4936771;29;20080;-93
2022/11/02 01:13:48;;;;;;;3.63;1.25;;;;;;;13.16;100.00;100243.69;4936265;29;20122;-94
2022/11/02 01:16:14;;;;;;;10.35;1.23;;;;;;;12.97;100.00;100237.25;4936982;29;20036;-93
2022/11/02 01:18:40;;;;;;;24.38;2.85;;;;;;;13.03;100.00;100257.03;4936906;29;20024;-93
2022/11/02 01:21:07;;;;;;;11.95;2.10;;;;;;;13.52;100.00;100265.41;4936452;29;20545;-93
2022/11/02 01:23:35;;;;;;;13.27;1.75;;;;;;;13.68;100.00;100273.72;4935773;29;20394;-93
2022/11/02 01:26:08;;;;;;;21.05;3.15;;;;;;;13.23;100.00;100284.41;4936618;29;20035;-92
2022/11/02 01:28:34;;;;;;;12.65;2.45;;;;;;;13.18;100.00;100305.06;4937774;29;20031;-93
2022/11/02 01:31:00;;;;;;;12.35;1.42;;;;;;;13.53;100.00;100275.00;4936210;29;20392;-92
2022/11/02 01:33:26;;;;;;;15.35;2.25;;;;;;;13.52;100.00;100270.69;4936466;29;20032;-93
2022/11/02 01:35:52;;;;;;;15.13;2.20;;;;;;;12.93;100.00;100285.91;4937615;29;20161;-93
2022/11/02 01:38:18;;;;;;;20.95;2.15;;;;;;;13.26;100.00;100284.16;4935790;29;20028;-93
2022/11/02 01:40:44;;;;;;;17.77;2.55;;;;;;;13.23;100.00;100287.91;4936526;29;20032;-93
2022/11/02 01:43:24;;;;;;;18.42;2.00;;;;;;;13.24;100.00;100291.38;4936448;29;20066;-93
2022/11/02 01:46:11;;;;;;;8.98;1.40;;;;;;;13.20;100.00;100289.94;4935975;29;20035;-92
2022/11/02 01:48:46;;;;;;;13.32;1.95;;;;;;;12.73;100.00;100297.22;4935747;29;20036;-94
2022/11/02 01:51:25;;;;;;;12.95;2.10;;;;;;;12.75;100.00;100296.13;4935975;29;20462;-93
2022/11/02 01:53:53;;;;;;;15.35;1.70;;;;;;;13.10;100.00;100300.38;4935978;29;20067;-93
2022/11/02 01:56:22;;;;;;;12.85;1.63;;;;;;;13.37;100.00;100297.34;4936124;29;20031;-93
2022/11/02 01:58:53;;;;;;;18.48;1.95;;;;;;;13.42;100.00;100303.06;4935971;29;20463;-93
2022/11/02 02:01:19;;;;;;;17.10;1.63;;;;;;;13.53;100.00;100311.94;4935838;29;20024;-93
2022/11/02 02:03:46;;;;;;;12.80;2.05;;;;;;;14.34;100.00;100314.88;4936112;29;20028;-92
2022/11/02 02:06:13;;;;;;;17.98;2.03;;;;;;;13.82;100.00;100306.88;4935930;29;20067;-93
2022/11/02 02:08:42;;;;;;;19.90;2.10;;;;;;;13.84;100.00;100326.06;4934895;29;20028;-94
2022/11/02 02:11:31;;;;;;;15.82;1.80;;;;;;;13.81;100.00;100319.25;4935490;29;20043;-93
2022/11/02 02:14:07;;;;;;;19.48;2.30;;;;;;;13.64;100.00;100325.06;4935672;29;20114;-92
2022/11/02 02:16:47;;;;;;;19.23;1.73;;;;;;;13.98;100.00;100320.50;4936654;29;20390;-93
2022/11/02 02:19:29;;;;;;;14.10;1.83;;;;;;;14.50;100.00;100311.75;4935693;29;20031;-93
2022/11/02 02:22:19;;;;;;;22.23;2.15;;;;;;;14.42;100.00;100322.97;4935753;29;20106;-93
2022/11/02 02:24:50;;;;;;;15.07;1.58;;;;;;;14.42;100.00;100322.97;4935332;29;20035;-92
2022/11/02 02:27:25;;;;;;;9.32;1.98;;;;;;;14.11;100.00;100324.72;4935215;29;20016;-92
2022/11/02 02:30:09;;;;;;;12.73;1.80;;;;;;;14.09;100.00;100322.22;4935179;29;20039;-93
2022/11/02 02:33:21;;;;;;;21.52;2.05;;;;;;;14.05;100.00;100331.34;4935202;29;20028;-93
2022/11/02 02:35:57;;;;;;;15.95;1.60;;;;;;;13.87;100.00;100329.28;4936390;29;20059;-93
2022/11/02 02:38:32;;;;;;;14.63;1.60;;;;;;;13.65;100.00;100337.31;4934120;29;20410;-94
2022/11/02 02:41:12;;;;;;;16.30;1.80;;;;;;;13.60;100.00;100323.66;4936186;29;20020;-92
2022/11/02 02:43:46;;;;;;;15.35;1.90;;;;;;;13.64;100.00;100325.06;4936292;29;20019;-93
2022/11/02 02:46:36;;;;;;;7.88;1.63;;;;;;;13.67;100.00;100340.66;4936021;29;20482;-93
2022/11/02 02:49:05;;;;;;;14.82;2.10;;;;;;;12.97;100.00;100337.41;4936113;29;20035;-91
2022/11/02 02:51:33;;;;;;;20.30;2.47;;;;;;;13.33;100.00;100338.13;4934647;29;20537;-92
2022/11/02 02:54:06;;;;;;;19.42;2.40;;;;;;;13.02;100.00;100344.97;4935844;29;20394;-92
2022/11/02 02:56:47;;;;;;;14.43;1.63;;;;;;;13.47;100.00;100350.19;4936004;29;20028;-94
2022/11/02 02:59:21;;;;;;;19.95;3.50;;;;;;;13.09;100.00;100351.41;4934807;29;20559;-92
2022/11/02 03:01:47;;;;;;;11.23;1.50;;;;;;;13.47;100.00;100347.56;4934599;29;20032;-92
2022/11/02 03:04:13;;;;;;;17.20;2.00;;;;;;;13.56;100.00;100354.72;4934476;29;20095;-93
2022/11/02 03:06:41;;;;;;;11.57;1.25;;;;;;;13.55;100.00;100354.84;4935145;29;20478;-92
2022/11/02 03:09:12;;;;;;;16.67;2.13;;;;;;;13.46;100.00;100357.25;4934596;29;20126;-94
2022/11/02 03:11:51;;;;;;;14.77;1.58;;;;;;;13.39;100.00;100356.09;4934004;29;20530;-93
2022/11/02 03:14:41;;;;;;;10.20;1.60;;;;;;;13.49;100.00;100350.91;4934213;29;20469;-93
2022/11/02 03:17:18;;;;;;;12.55;2.03;;;;;;;13.02;100.00;100351.06;4933605;29;20486;-92
2022/11/02 03:19:50;;;;;;;30.23;3.20;;;;;;;13.17;100.00;100364.84;4934485;29;20038;-93
2022/11/02 03:22:40;;;;;;;26.50;3.30;;;;;;;13.15;100.00;100360.63;4934181;29;20027;-94
2022/11/02 03:25:15;;;;;;;12.93;2.10;;;;;;;13.29;100.00;100373.59;4934362;29;20032;-94
2022/11/02 03:27:52;;;;;;;18.90;2.13;;;;;;;12.96;100.00;100370.00;4934409;29;20059;-94
2022/11/02 03:30:20;;;;;;;12.50;1.85;;;;;;;12.96;100.00;100367.38;4934134;29;20035;-94
2022/11/02 03:32:54;;;;;;;16.20;1.80;;;;;;;12.70;100.00;100361.50;4934721;29;20482;-94
2022/11/02 03:35:41;;;;;;;11.68;1.17;;;;;;;12.81;100.00;100369.41;4934301;29;20118;-93
2022/11/02 03:38:14;;;;;;;10.70;1.45;;;;;;;12.82;100.00;100376.38;4934175;29;20391;-94
2022/11/02 03:40:46;;;;;;;9.88;1.70;;;;;;;12.76;100.00;100381.28;4935252;29;20038;-94
2022/11/02 03:43:13;;;;;;;12.30;1.50;;;;;;;12.83;100.00;100375.38;4934232;29;20493;-94
2022/11/02 03:45:45;;;;;;;13.85;2.17;;;;;;;13.29;100.00;100386.78;4934313;29;20039;-94
2022/11/02 03:48:13;;;;;;;21.17;1.92;;;;;;;13.01;100.00;100370.50;4933697;29;20031;-94
2022/11/02 03:50:43;;;;;;;19.73;1.98;;;;;;;13.19;100.00;100384.03;4935209;29;20032;-94
2022/11/02 03:53:15;;;;;;;12.73;2.97;;;;;;;13.18;100.00;100382.34;4932874;29;20051;-94
2022/11/02 03:55:44;;;;;;;;;;;;;;;13.28;100.00;100382.44;4934377;29;20024;-93
2022/11/02 03:58:11;;;;;;;13.82;1.30;;;;;;;13.32;100.00;100376.00;4949910;29;19914;-94
2022/11/02 04:00:44;;;;;;;13.82;1.67;;;;;;;13.08;100.00;100384.84;4934010;29;20118;-94
2022/11/02 04:03:11;;;;;;;12.18;1.70;;;;;;;12.49;100.00;100383.25;4933813;29;20028;-93
2022/11/02 04:05:37;;;;;;;13.88;1.60;;;;;;;12.23;100.00;100393.16;4933439;29;20054;-93
2022/11/02 04:08:21;;;;;;;22.50;2.30;;;;;;;12.92;100.00;100391.47;4932655;29;20509;-93
2022/11/02 04:16:17;;;;;;;13.68;1.92;;;;;;;12.52;100.00;100402.41;4935115;29;20442;-93
2022/11/02 04:21:27;;;;;;;9.05;2.00;;;;;;;12.30;100.00;100428.59;4934038;29;20034;-92
2022/11/02 04:26:36;;;;;;;9.18;1.48;;;;;;;12.44;100.00;100422.28;4938688;29;20042;-93
2022/11/02 04:29:02;;;;;;;12.88;2.17;;;;;;;12.09;100.00;100425.75;4937385;29;20480;-92
2022/11/02 04:31:28;;;;;;;15.07;1.95;;;;;;;11.95;100.00;100427.72;4937386;29;20382;-92
2022/11/02 04:33:53;;;;;;;23.48;2.63;;;;;;;12.08;100.00;100415.34;4937273;29;20031;-93
2022/11/02 04:36:19;;;;;;;13.98;1.98;;;;;;;12.21;100.00;100421.38;4935614;29;20055;-91
2022/11/02 04:38:45;;;;;;;12.77;1.73;;;;;;;12.25;100.00;100435.16;4921695;29;20036;-92
2022/11/02 04:44:03;;;;;;;19.95;2.67;;;;;;;12.98;100.00;100423.44;4919285;29;20119;-91
2022/11/02 04:46:32;;;;;;;24.83;1.73;;;;;;;12.88;100.00;100438.28;4934210;29;20111;-93
2022/11/02 04:48:57;;;;;;;19.67;1.80;;;;;;;12.25;100.00;100441.25;4936984;29;20034;-92
2022/11/02 04:51:24;;;;;;;14.20;2.15;;;;;;;12.85;100.00;100439.34;4935206;29;20035;-91
2022/11/02 04:53:52;;;;;;;16.30;1.92;;;;;;;12.76;100.00;100455.06;4937909;29;20042;-92
2022/11/02 04:56:18;;;;;;;8.00;1.55;;;;;;;12.86;100.00;100454.22;4937820;29;20474;-92
2022/11/02 04:58:51;;;;;;;18.58;2.80;;;;;;;12.88;100.00;100454.94;4937931;29;20036;-92
2022/11/02 05:01:17;;;;;;;16.80;1.58;;;;;;;12.47;100.00;100437.00;4937671;29;20099;-93
2022/11/02 05:03:45;;;;;;;23.73;1.65;;;;;;;12.72;100.00;100443.03;4952558;29;20063;-92
2022/11/02 05:06:10;;;;;;;9.70;1.45;;;;;;;12.89;100.00;100447.88;4936326;29;20063;-92
2022/11/02 05:08:36;;;;;;;11.68;1.77;;;;;;;12.81;100.00;100435.28;4937353;29;20465;-90
2022/11/02 05:11:01;;;;;;;12.18;2.53;;;;;;;12.81;100.00;100437.91;4937455;29;20063;-91
2022/11/02 05:13:27;;;;;;;14.93;1.95;;;;;;;12.94;100.00;100453.63;4936501;29;20459;-91
2022/11/02 05:15:57;;;;;;;21.30;1.80;;;;;;;12.86;100.00;100448.94;4937373;29;20038;-91
2022/11/02 05:18:23;;;;;;;12.55;2.88;;;;;;;12.36;100.00;100455.41;4937603;29;20023;-92
2022/11/02 05:20:58;;;;;;;11.65;2.17;;;;;;;12.91;100.00;100459.13;4935899;29;20024;-92
2022/11/02 05:23:24;;;;;;;10.50;1.27;;;;;;;12.88;100.00;100459.38;4936116;29;20122;-91
2022/11/02 05:25:54;;;;;;;9.38;1.02;;;;;;;12.82;100.00;100455.41;4925698;29;20118;-91
2022/11/02 05:28:20;;;;;;;4.72;0.85;;;;;;;12.49;100.00;100453.53;4918330;29;20482;-92
2022/11/02 05:30:46;;;;;;;7.70;1.50;;;;;;;12.38;100.00;100451.72;4917123;29;20152;-92
2022/11/02 05:33:11;;;;;;;13.77;1.48;;;;;;;12.35;100.00;100459.00;4917756;29;20392;-91
2022/11/02 05:35:37;;;;;;;8.18;1.15;;;;;;;12.15;100.00;100450.78;4919982;29;20035;-92
2022/11/02 05:38:02;;;;;;;11.88;1.88;;;;;;;11.98;100.00;100453.81;4936745;29;20035;-91
2022/11/02 05:40:28;;;;;;;17.27;1.85;;;;;;;12.32;100.00;100451.31;4951534;29;20063;-92
2022/11/02 05:43:00;;;;;;;17.48;2.08;;;;;;;12.41;100.00;100450.66;4936648;29;20032;-91
2022/11/02 05:45:26;;;;;;;11.07;1.63;;;;;;;12.44;100.00;100450.41;4929390;29;20031;-92
2022/11/02 05:47:52;;;;;;;20.42;1.85;;;;;;;12.28;100.00;100466.50;4932324;29;20487;-91
2022/11/02 05:50:18;;;;;;;18.83;2.03;;;;;;;12.36;100.00;100437.84;4934003;29;20146;-92
2022/11/02 05:52:43;;;;;;;11.38;1.80;;;;;;;12.48;100.00;100447.44;4935503;29;20043;-92
2022/11/02 05:55:09;;;;;;;16.30;2.03;;;;;;;12.46;100.00;100440.59;4930414;29;20016;-92
2022/11/02 05:57:35;;;;;;;16.58;1.63;;;;;;;12.39;100.00;100439.38;4916549;29;20039;-92
2022/11/02 06:00:02;;;;;;;6.80;1.10;;;;;;;12.57;100.00;100434.53;4932207;29;20115;-92
2022/11/02 06:02:27;;;;;;;7.90;1.40;;;;;;;12.55;100.00;100436.44;4932004;29;20302;-92
2022/11/02 06:04:52;;;;;;;15.40;1.70;;;;;;;12.50;100.00;100439.44;4932118;29;20604;-91
2022/11/02 06:07:18;;;;;;;10.40;1.30;;;;;;;12.57;100.00;100439.78;4935334;29;20022;-92
2022/11/02 06:09:43;;;;;;;19.95;1.80;;;;;;;12.53;100.00;100431.28;4936669;29;20032;-92
2022/11/02 06:12:09;;;;;;;5.80;1.00;;;;;;;12.54;100.00;100427.72;4936475;29;20094;-92
2022/11/02 06:14:34;;;;;;;13.25;1.50;;;;;;;12.52;100.00;100419.09;4934700;29;20024;-91
2022/11/02 06:17:00;;;;;;;8.65;1.67;;;;;;;12.30;100.00;100412.81;4935181;29;20066;-92
2022/11/02 06:19:25;;;;;;;9.60;1.45;;;;;;;12.36;100.00;100415.91;4935603;29;20020;-92
2022/11/02 06:21:51;;;;;;;9.95;1.50;;;;;;;12.39;100.00;100411.25;4935330;29;20039;-92
2022/11/02 06:24:16;;;;;;;11.70;1.42;;;;;;;12.28;100.00;100414.72;4935965;29;20038;-92
2022/11/02 06:26:42;;;;;;;10.65;1.40;;;;;;;12.05;100.00;100410.31;4935875;29;20478;-92
2022/11/02 06:29:07;;;;;;;15.02;2.20;;;;;;;12.43;100.00;100417.13;4935050;29;20027;-92
2022/11/02 06:31:33;;;;;;;11.80;2.10;;;;;;;12.43;99.63;100417.13;4936133;29;20035;-91
2022/11/02 06:33:58;;;;;;;16.20;1.42;;;;;;;12.29;99.21;100421.63;4934594;29;20486;-92
2022/11/02 06:36:24;;;;;;;16.33;2.00;;;;;;;12.09;100.00;100422.28;4932306;29;20030;-94
2022/11/02 06:38:50;;;;;;;12.88;2.75;;;;;;;12.18;100.00;100423.41;4934608;29;20032;-92
2022/11/02 06:41:15;;;;;;;15.73;3.63;;;;;;;12.23;100.00;100427.38;4936029;29;20454;-92
2022/11/02 06:43:41;;;;;;;15.52;2.35;;;;;;;12.32;100.00;100425.81;4936243;29;20301;-92
2022/11/02 06:46:06;;;;;;;17.52;3.15;;;;;;;11.88;100.00;100424.69;4935299;29;20023;-92
2022/11/02 06:48:32;;;;;;;18.30;1.85;;;;;;;12.07;100.00;100421.56;4935105;29;20039;-93
2022/11/02 06:50:57;;;;;;;21.33;1.92;;;;;;;12.09;100.00;100420.50;4933930;29;20035;-92
2022/11/02 06:53:23;;;;;;;12.20;2.30;;;;;;;12.20;100.00;100430.22;4936247;29;20067;-92
2022/11/02 06:55:57;;;;;;;18.60;1.98;;;;;;;12.47;100.00;100432.59;4934660;29;20062;-92
2022/11/02 06:58:23;;;;;;;9.07;1.40;;;;;;;12.36;100.00;100445.72;4934734;29;20236;-92
2022/11/02 07:00:50;;;;;;;14.80;2.42;;;;;;;12.30;100.00;100433.88;4935797;29;20031;-92
2022/11/02 07:03:15;;;;;;;18.10;2.10;;;;;;;11.96;100.00;100450.47;4934554;29;20114;-92
2022/11/02 07:05:41;;;;;;;22.73;2.35;;;;;;;12.16;100.00;100441.94;4934988;29;20119;-92
2022/11/02 07:08:07;;;;;;;14.20;2.10;;;;;;;12.16;100.00;100441.09;4934631;29;20036;-92
2022/11/02 07:10:34;;;;;;;13.55;2.33;;;;;;;12.24;100.00;100447.50;4933981;29;20482;-92
2022/11/02 07:13:00;;;;;;;13.65;2.17;;;;;;;12.01;100.00;100445.72;4933865;29;20036;-92
2022/11/02 07:15:26;;;;;;;8.50;1.75;;;;;;;11.93;100.00;100440.16;4933029;29;20391;-92
2022/11/02 07:17:52;;;;;;;19.75;2.45;;;;;;;11.82;100.00;100449.63;4933022;29;20056;-93
2022/11/02 07:20:18;;;;;;;16.90;1.92;;;;;;;12.12;100.00;100439.66;4931018;29;20120;-94
2022/11/02 07:22:55;;;;;;;19.50;2.50;;;;;;;12.78;100.00;100450.50;4933159;29;20504;-93
2022/11/02 07:25:21;;;;;;;9.45;1.67;;;;;;;12.76;100.00;100439.25;4933058;29;20032;-95
2022/11/02 07:27:46;;;;;;;12.57;2.35;;;;;;;13.09;100.00;100441.91;4933639;29;20095;-96
2022/11/02 07:30:12;;;;;;;18.88;2.63;;;;;;;13.04;100.00;100430.03;4934856;29;20043;-95
2022/11/02 07:32:39;;;;;;;14.35;1.70;;;;;;;13.38;100.00;100436.16;4933614;29;20086;-94
2022/11/02 07:35:07;;;;;;;15.05;2.08;;;;;;;13.56;100.00;100440.94;4934425;29;20088;-95
2022/11/02 07:37:33;;;;;;;14.48;1.88;;;;;;;13.66;100.00;100455.06;4933179;29;20410;-93
2022/11/02 07:39:58;;;;;;;15.25;1.88;;;;;;;13.75;100.00;100441.13;4931243;29;20032;-92
2022/11/02 07:42:24;;;;;;;17.70;2.28;;;;;;;13.76;100.00;100437.50;4932837;29;20486;-93
2022/11/02 07:44:49;;;;;;;21.38;4.88;;;;;;;13.80;100.00;100454.81;4932791;29;20059;-92
2022/11/02 07:47:15;;;;;;;17.73;2.50;;;;;;;14.23;100.00;100443.34;4933564;29;20027;-93
2022/11/02 07:49:40;;;;;;;16.30;2.13;;;;;;;14.38;100.00;100441.25;4933648;29;20099;-92
2022/11/02 07:52:06;;;;;;;13.65;2.60;;;;;;;14.53;98.93;100427.72;4934703;29;20470;-93
2022/11/02 07:54:31;;;;;;;14.20;1.85;;;;;;;14.61;97.76;100433.22;4933912;29;20430;-93
2022/11/02 07:56:57;;;;;;;12.65;3.33;;;;;;;14.74;99.26;100428.59;4933899;29;20064;-93
2022/11/02 07:59:22;;;;;;;13.70;2.42;;;;;;;14.83;96.14;100430.44;4934066;29;20070;-94
2022/11/02 08:01:48;;;;;;;14.77;2.63;;;;;;;14.68;96.34;100415.88;4934093;29;20106;-94
2022/11/02 08:04:13;;;;;;;13.68;2.35;;;;;;;14.73;97.85;100426.06;4934958;29;20023;-95
2022/11/02 08:06:39;;;;;;;19.65;2.47;;;;;;;14.56;99.17;100433.63;4935273;29;20474;-95
2022/11/02 08:09:04;;;;;;;14.70;2.28;;;;;;;14.21;100.00;100440.00;4935062;29;20060;-95
2022/11/02 08:11:30;;;;;;;23.35;3.28;;;;;;;14.81;99.99;100436.81;4930203;29;20070;-93
2022/11/02 08:13:55;;;;;;;14.52;2.70;;;;;;;15.04;100.00;100437.50;4933574;29;20028;-94
2022/11/02 08:16:21;;;;;;;26.42;2.85;;;;;;;15.24;98.65;100433.13;4930428;29;20024;-93
2022/11/02 08:18:46;;;;;;;26.88;3.67;;;;;;;15.40;97.88;100437.91;4938520;29;20034;-94
2022/11/02 08:21:12;;;;;;;20.88;2.50;;;;;;;15.59;97.30;100442.41;4931858;29;20027;-93
2022/11/02 08:23:37;;;;;;;24.40;2.83;;;;;;;15.61;98.21;100445.75;4939512;29;20094;-93
2022/11/02 08:26:02;;;;;;;19.92;2.58;;;;;;;15.76;98.26;100444.44;4945943;29;20023;-93
2022/11/02 08:28:31;;;;;;;27.30;2.60;;;;;;;15.93;98.01;100448.22;4935540;29;20390;-93
2022/11/02 08:30:58;;;;;;;28.00;2.63;;;;;;;15.54;99.38;100442.84;4938833;29;20035;-92
2022/11/02 08:33:23;;;;;;;29.52;2.95;;;;;;;15.92;95.30;100427.19;4942423;28;20047;-93
2022/11/02 08:35:49;;;;;;;25.42;3.65;;;;;;;15.81;99.09;100433.44;4948341;29;20066;-94
2022/11/02 08:38:16;;;;;;;26.38;3.35;;;;;;;15.94;96.08;100441.94;4939864;29;20057;-94
2022/11/02 08:40:44;;;;;;;24.83;3.03;;;;;;;16.01;97.13;100428.97;4927617;29;20095;-96
2022/11/02 08:43:11;;;;;;;20.77;3.60;;;;;;;15.84;97.02;100441.94;4928709;29;20486;-93
2022/11/02 08:45:39;;;;;;;29.02;3.83;;;;;;;16.01;95.22;100442.22;4930708;29;20091;-94
2022/11/02 08:48:06;;;;;;;24.02;3.63;;;;;;;16.08;96.33;100442.53;4932890;29;20439;-93
2022/11/02 08:50:32;;;;;;;19.60;2.33;;;;;;;16.11;94.45;100443.06;4929853;29;20032;-93
2022/11/02 08:52:57;;;;;;;17.17;2.90;;;;;;;16.05;95.37;100446.25;4914088;29;20040;-94
2022/11/02 08:55:23;;;;;;;16.63;3.25;;;;;;;16.49;96.49;100446.69;4932283;29;20126;-93
2022/11/02 08:57:53;;;;;;;28.98;3.10;;;;;;;17.11;90.25;100439.16;4934146;29;20036;-93
2022/11/02 09:00:25;;;;;;;18.38;2.50;;;;;;;18.27;85.67;100433.28;4931725;29;20178;-93
2022/11/02 09:02:59;;;;;;;18.63;3.03;;;;;;;20.45;79.10;100425.66;4932582;29;20039;-92
2022/11/02 09:05:24;;;;;;;22.27;3.38;;;;;;;20.87;67.65;100428.09;4931284;29;20043;-93
2022/11/02 09:08:02;;;;;;;12.48;2.17;;;;;;;20.77;68.54;100422.13;4932768;29;20024;-93
2022/11/02 09:10:29;;;;;;;29.83;3.53;;;;;;;19.15;76.20;100422.56;4950537;28;20036;-94
2022/11/02 09:12:57;;;;;;;23.80;3.53;;;;;;;18.01;79.05;100418.94;4936240;29;20032;-93
2022/11/02 09:15:23;;;;;;;26.50;3.63;;;;;;;17.79;81.54;100425.50;4919612;29;20058;-93
2022/11/02 09:17:49;;;;;;;23.13;2.42;;;;;;;17.61;84.13;100416.66;4952895;28;20031;-93
2022/11/02 09:20:16;;;;;;;19.92;2.72;;;;;;;18.42;81.66;100399.81;4932373;29;20055;-94
2022/11/02 09:22:42;;;;;;;19.33;2.42;;;;;;;18.32;80.61;100401.75;4935494;29;20031;-94
2022/11/02 09:25:08;;;;;;;20.70;3.75;;;;;;;17.72;80.92;100395.22;4945508;29;20055;-94
2022/11/02 09:27:34;;;;;;;21.00;3.13;;;;;;;16.98;86.06;100402.34;4948036;29;20367;-93
2022/11/02 09:29:59;;;;;;;26.63;3.60;;;;;;;17.64;85.88;100387.19;4952051;29;20038;-94
2022/11/02 09:32:25;;;;;;;19.77;3.95;;;;;;;18.20;80.03;100375.41;4943657;29;20035;-93
2022/11/02 09:34:51;;;;;;;20.75;3.28;;;;;;;18.97;77.70;100367.59;4942575;28;20066;-94
2022/11/02 09:37:16;;;;;;;20.55;2.78;;;;;;;19.35;77.30;100364.56;4941186;29;20023;-94
2022/11/02 09:39:42;;;;;;;16.83;2.17;;;;;;;20.17;71.12;100360.19;4951082;29;20512;-93
2022/11/02 09:42:25;;;;;;;20.60;3.63;;;;;;;21.11;66.72;100356.94;4945961;29;20035;-92
2022/11/02 09:45:00;;;;;;;20.33;3.33;;;;;;;23.23;64.66;100342.72;4936005;29;20045;-93
2022/11/02 09:47:28;;;;;;;16.50;3.25;;;;;;;21.66;62.34;100329.25;4939659;29;20035;-93
2022/11/02 09:49:55;;;;;;;18.52;3.22;;;;;;;20.49;65.58;100331.78;4941618;29;20311;-94
2022/11/02 09:52:33;;;;;;;21.30;4.50;;;;;;;21.34;65.45;100315.09;4936432;29;20115;-94
2022/11/02 09:55:01;;;;;;;19.10;2.42;;;;;;;22.42;61.26;100304.41;4949802;29;20031;-94
2022/11/02 09:57:32;;;;;;;17.88;2.35;;;;;;;21.08;64.91;100318.09;4936326;29;20024;-92
2022/11/02 10:00:00;;;;;;;15.10;2.80;;;;;;;20.32;65.97;100293.69;4930767;29;20031;-95
2022/11/02 10:03:08;;;;;;;15.52;2.83;;;;;;;23.22;60.76;100284.81;4937291;29;20152;-95
2022/11/02 10:05:55;;;;;;;19.27;2.60;;;;;;;20.37;66.18;100311.81;4950411;29;20039;-96
2022/11/02 10:08:38;;;;;;;24.08;3.17;;;;;;;20.35;65.43;100293.31;4944636;29;20033;-93
2022/11/02 10:11:41;;;;;;;14.60;2.47;;;;;;;19.68;68.83;100290.88;4945935;28;20023;-94
2022/11/02 10:14:29;;;;;;;19.27;3.33;;;;;;;19.10;73.44;100287.31;4939806;29;20023;-94
2022/11/02 10:16:57;;;;;;;19.52;3.20;;;;;;;19.91;71.44;100279.59;4946657;29;20054;-94
2022/11/02 10:19:23;;;;;;;14.02;2.50;;;;;;;18.96;73.34;100288.78;4941829;28;20038;-94
2022/11/02 10:21:55;;;;;;;25.38;3.40;;;;;;;18.11;79.56;100274.53;4940018;29;20066;-94
2022/11/02 10:24:38;;;;;;;28.40;4.10;;;;;;;17.22;83.02;100266.50;4943599;29;20031;-96
2022/11/02 10:27:12;;;;;;;23.15;4.10;;;;;;;17.69;84.50;100257.44;4943394;29;20040;-95
2022/11/02 10:30:02;;;;;;;18.52;3.42;;;;;;;17.78;85.64;100268.97;4945150;29;20034;-94
2022/11/02 10:32:30;;;;;;;15.50;3.20;;;;;;;17.80;85.98;100272.31;4949130;29;20035;-95
2022/11/02 10:34:59;;;;;;;27.85;4.20;;;;;;;17.05;91.58;100262.84;4940625;29;20034;-95
2022/11/02 10:37:43;;;;;;;23.45;4.10;;;;;;;17.25;92.00;100246.78;4948377;29;20126;-95
2022/11/02 10:40:41;;;;;;;22.45;3.42;;;;;;;17.04;92.07;100220.53;4936963;29;20024;-96
2022/11/02 10:43:31;;;;;;;21.27;3.78;;;;;;;17.55;91.70;100219.00;4934795;29;20550;-94
2022/11/02 10:46:22;;;;;;;23.95;4.00;;;;;;;17.21;92.50;100210.94;4936183;29;20038;-95
2022/11/02 10:49:12;;;;;;;23.38;4.65;;;;;;;16.79;92.91;100206.19;4935527;29;20502;-95
2022/11/02 10:51:38;;;;;;;30.55;4.90;;;;;;;17.00;92.59;100195.31;4940034;29;20270;-96
2022/11/02 10:54:12;;;;;;;24.38;3.03;;;;;;;17.68;90.21;100205.34;4958620;29;20278;-96
2022/11/02 10:56:39;;;;;;;27.40;3.53;;;;;;;17.34;91.70;100192.81;4941595;28;20067;-96
2022/11/02 10:59:22;;;;;;;27.30;4.43;;;;;;;17.27;92.48;100180.31;4946746;29;20031;-96
2022/11/02 11:02:01;;;;;;;24.13;3.35;;;;;;;17.48;90.42;100179.97;4937981;29;20035;-96
2022/11/02 11:04:31;;;;;;;32.58;4.68;;;;;;;17.44;90.46;100174.97;4938365;29;20082;-96
2022/11/02 11:07:05;;;;;;;28.52;5.30;;;;;;;16.76;94.71;100169.34;4948137;29;20032;-96
2022/11/02 11:09:49;;;;;;;24.13;4.90;;;;;;;16.94;94.06;100175.56;4948043;29;20430;-96
2022/11/02 11:12:20;;;;;;;28.20;5.47;;;;;;;16.99;90.05;100177.75;4930630;29;20028;-95
2022/11/02 11:14:54;;;;;;;25.30;4.45;;;;;;;17.47;88.29;100162.38;4939894;29;20031;-95
2022/11/02 11:17:27;;;;;;;26.70;3.30;;;;;;;17.23;87.64;100163.84;4939710;29;20506;-96
2022/11/02 11:19:57;;;;;;;40.38;4.43;;;;;;;17.35;86.32;100170.56;4928069;29;20036;-96
2022/11/02 11:22:38;;;;;;;18.45;4.13;;;;;;;17.43;85.73;100159.19;4935959;29;20028;-96
2022/11/02 11:25:22;;;;;;;26.43;4.27;;;;;;;17.96;82.40;100150.25;4942172;29;20031;-96
2022/11/02 11:27:56;;;;;;;28.20;5.30;;;;;;;17.57;84.62;100155.13;4936534;29;20032;-96
2022/11/02 11:30:32;;;;;;;24.85;5.18;;;;;;;18.51;81.91;100172.09;4943303;29;20019;-96
2022/11/02 11:33:03;;;;;;;22.35;4.10;;;;;;;18.42;78.48;100163.22;4937658;29;20091;-96
2022/11/02 11:35:35;;;;;;;32.30;4.70;;;;;;;19.61;73.54;100140.75;4934272;29;20031;-96
2022/11/02 11:38:14;;;;;;;26.40;4.35;;;;;;;17.91;81.66;100168.50;4977223;28;20031;-96